createdAt,value
2018-05-16T00:00:37.819Z,5.00
2018-05-16T00:03:08.598Z,5.70
2018-05-16T00:05:39.404Z,4.87
2018-05-16T00:08:10.171Z,5.10
2018-05-16T00:10:40.980Z,4.77
2018-05-16T00:13:11.775Z,5.47
2018-05-16T00:15:42.576Z,4.97
2018-05-16T00:18:13.336Z,5.20
2018-05-16T00:20:44.129Z,5.20
2018-05-16T00:23:14.916Z,6.00
2018-05-16T00:25:45.745Z,6.10
2018-05-16T00:28:16.511Z,5.50
2018-05-16T00:30:47.296Z,5.53
2018-05-16T00:33:18.081Z,4.73
2018-05-16T00:35:48.916Z,5.77
2018-05-16T00:38:19.692Z,7.30
2018-05-16T00:40:50.513Z,6.00
2018-05-16T00:43:21.292Z,6.13
2018-05-16T00:45:52.099Z,5.93
2018-05-16T00:48:22.864Z,6.50
2018-05-16T00:51:05.958Z,6.47
2018-05-16T00:53:36.748Z,6.80
2018-05-16T00:56:07.532Z,6.37
2018-05-16T00:58:38.335Z,6.07
2018-05-16T01:01:09.130Z,7.13
2018-05-16T01:03:39.911Z,7.53
2018-05-16T01:06:10.703Z,6.33
2018-05-16T01:08:41.561Z,6.87
2018-05-16T01:11:12.448Z,6.93
2018-05-16T01:13:43.259Z,7.40
2018-05-16T01:16:14.041Z,6.73
2018-05-16T01:18:44.846Z,6.90
2018-05-16T01:21:15.662Z,7.47
2018-05-16T01:23:46.450Z,6.70
2018-05-16T01:26:17.339Z,6.53
2018-05-16T01:28:48.111Z,7.37
2018-05-16T01:31:18.895Z,7.10
2018-05-16T01:33:49.665Z,7.13
2018-05-16T01:36:20.468Z,7.77
2018-05-16T01:38:51.230Z,7.17
2018-05-16T01:41:22.019Z,7.80
2018-05-16T01:43:52.785Z,8.30
2018-05-16T01:46:23.558Z,7.73
2018-05-16T01:49:06.624Z,7.63
2018-05-16T01:51:37.399Z,7.90
2018-05-16T01:54:08.148Z,7.80
2018-05-16T01:56:38.943Z,8.07
2018-05-16T01:59:09.739Z,7.77
2018-05-16T02:01:40.506Z,8.27
2018-05-16T02:04:11.270Z,8.10
2018-05-16T02:06:42.059Z,8.80
2018-05-16T02:09:12.807Z,9.30
2018-05-16T02:11:43.583Z,9.50
2018-05-16T02:14:14.359Z,8.23
2018-05-16T02:16:45.143Z,8.80
2018-05-16T02:19:15.932Z,8.90
2018-05-16T02:21:46.709Z,8.37
2018-05-16T02:24:17.503Z,9.57
2018-05-16T02:26:48.288Z,8.37
2018-05-16T02:29:19.029Z,8.77
2018-05-16T02:31:49.837Z,8.20
2018-05-16T02:34:20.592Z,9.93
2018-05-16T02:36:51.389Z,8.63
2018-05-16T02:39:22.213Z,9.27
2018-05-16T02:41:53.020Z,9.33
2018-05-16T02:44:23.892Z,9.30
2018-05-16T02:46:54.723Z,9.20
2018-05-16T02:49:25.501Z,9.77
2018-05-16T02:51:56.311Z,9.33
2018-05-16T02:54:27.186Z,10.30
2018-05-16T02:56:57.928Z,9.47
2018-05-16T02:59:28.705Z,9.47
2018-05-16T03:01:59.498Z,10.20
2018-05-16T03:04:30.320Z,10.77
2018-05-16T03:07:01.108Z,10.30
2018-05-16T03:09:31.859Z,10.77
2018-05-16T03:12:02.669Z,11.73
2018-05-16T03:14:33.555Z,10.27
2018-05-16T03:17:04.368Z,11.03
2018-05-16T03:19:35.197Z,10.10
2018-05-16T03:22:05.989Z,10.80
2018-05-16T03:24:36.812Z,10.13
2018-05-16T03:27:07.617Z,9.87
2018-05-16T03:29:38.411Z,10.73
2018-05-16T03:32:09.211Z,10.80
2018-05-16T03:34:39.989Z,10.33
2018-05-16T03:37:10.773Z,11.57
2018-05-16T03:39:41.607Z,10.93
2018-05-16T03:42:12.399Z,11.93
2018-05-16T03:44:43.168Z,12.10
2018-05-16T03:47:14.022Z,13.17
2018-05-16T03:49:44.867Z,12.70
2018-05-16T03:52:15.674Z,12.50
2018-05-16T03:54:46.440Z,12.73
2018-05-16T03:57:29.456Z,13.10
2018-05-16T04:00:12.567Z,13.88
2018-05-16T04:02:55.732Z,14.23
2018-05-16T04:05:26.517Z,14.20
2018-05-16T04:07:57.324Z,13.30
2018-05-16T04:10:28.151Z,14.10
2018-05-16T04:12:58.951Z,14.73
2018-05-16T04:15:29.726Z,14.00
2018-05-16T04:18:00.543Z,14.00
2018-05-16T04:20:31.344Z,14.67
2018-05-16T04:23:02.208Z,15.00
2018-05-16T04:25:33.021Z,15.43
2018-05-16T04:28:03.906Z,16.47
2018-05-16T04:30:34.831Z,14.30
2018-05-16T04:33:05.669Z,15.53
2018-05-16T04:35:36.489Z,15.63
2018-05-16T04:38:07.294Z,15.63
2018-05-16T04:40:38.651Z,15.57
2018-05-16T04:43:09.501Z,15.98
2018-05-16T04:45:40.302Z,16.00
2018-05-16T04:48:11.104Z,16.73
2018-05-16T04:50:41.911Z,15.00
2018-05-16T04:53:13.065Z,16.73
2018-05-16T04:55:43.861Z,16.45
2018-05-16T04:58:14.692Z,16.93
2018-05-16T05:00:45.554Z,16.70
2018-05-16T05:03:16.371Z,16.67
2018-05-16T05:05:47.751Z,17.10
2018-05-16T05:08:18.615Z,17.63
2018-05-16T05:10:49.436Z,17.93
2018-05-16T05:13:20.216Z,16.00
2018-05-16T05:15:50.992Z,16.93
2018-05-16T05:18:21.911Z,16.60
2018-05-16T05:20:52.664Z,17.23
2018-05-16T05:23:23.478Z,18.20
2018-05-16T05:25:54.285Z,17.47
2018-05-16T05:28:27.101Z,17.03
2018-05-16T05:30:57.872Z,16.60
2018-05-16T05:33:28.673Z,15.97
2018-05-16T05:35:59.446Z,19.37
2018-05-16T05:38:30.248Z,17.33
2018-05-16T05:41:01.048Z,17.97
2018-05-16T05:43:31.867Z,18.20
2018-05-16T05:46:02.678Z,16.27
2018-05-16T05:48:33.574Z,17.07
2018-05-16T05:51:04.375Z,17.70
2018-05-16T05:53:35.401Z,17.30
2018-05-16T05:56:06.201Z,17.13
2018-05-16T05:58:37.041Z,16.60
2018-05-16T06:01:07.831Z,17.60
2018-05-16T06:03:38.617Z,17.43
2018-05-16T06:06:09.403Z,17.10
2018-05-16T06:08:40.244Z,17.63
2018-05-16T06:11:11.036Z,17.97
2018-05-16T06:13:41.875Z,16.77
2018-05-16T06:16:12.659Z,16.77
2018-05-16T06:18:43.511Z,17.43
2018-05-16T06:21:14.331Z,17.40
2018-05-16T06:23:45.186Z,17.07
2018-05-16T06:26:16.011Z,18.57
2018-05-16T06:28:46.827Z,17.90
2018-05-16T06:31:17.652Z,17.30
2018-05-16T06:33:48.488Z,17.73
2018-05-16T06:36:19.296Z,16.40
2018-05-16T06:38:50.099Z,17.10
2018-05-16T06:41:20.896Z,19.50
2018-05-16T06:43:51.713Z,18.20
2018-05-16T06:46:22.719Z,17.97
2018-05-16T06:48:53.619Z,18.33
2018-05-16T06:51:24.403Z,18.57
2018-05-16T06:53:55.281Z,17.50
2018-05-16T06:56:26.219Z,18.63
2018-05-16T06:58:57.022Z,18.57
2018-05-16T07:01:27.788Z,17.57
2018-05-16T07:03:58.617Z,17.93
2018-05-16T07:06:29.389Z,19.53
2018-05-16T07:09:00.228Z,18.50
2018-05-16T07:11:31.052Z,18.70
2018-05-16T07:14:01.904Z,12.10
2018-05-16T07:16:32.695Z,12.80
2018-05-16T07:19:03.511Z,12.63
2018-05-16T07:21:34.291Z,11.27
2018-05-16T07:24:05.106Z,9.33
2018-05-16T07:26:35.913Z,7.70
2018-05-16T07:29:06.703Z,8.50
2018-05-16T07:31:37.854Z,8.80
2018-05-16T07:34:08.671Z,6.57
2018-05-16T07:36:39.459Z,5.27
2018-05-16T07:39:10.264Z,3.47
2018-05-16T07:41:41.031Z,4.00
2018-05-16T07:44:11.815Z,3.57
2018-05-16T07:46:42.629Z,4.43
2018-05-16T07:49:13.556Z,4.23
2018-05-16T07:51:44.235Z,4.53
2018-05-16T07:54:15.068Z,3.53
2018-05-16T07:56:45.815Z,4.10
2018-05-16T07:59:16.721Z,4.20
2018-05-16T08:01:47.468Z,3.17
2018-05-16T08:04:18.303Z,3.87
2018-05-16T08:06:49.106Z,4.10
2018-05-16T08:09:19.938Z,4.17
2018-05-16T08:11:50.743Z,3.77
2018-05-16T08:14:21.534Z,5.20
2018-05-16T08:16:52.404Z,5.40
2018-05-16T08:19:23.251Z,5.10
2018-05-16T08:21:54.139Z,4.53
2018-05-16T08:24:24.813Z,5.50
2018-05-16T08:26:55.607Z,5.30
2018-05-16T08:29:26.412Z,6.97
2018-05-16T08:31:57.177Z,6.27
2018-05-16T08:34:27.983Z,6.33
2018-05-16T08:36:58.772Z,6.17
2018-05-16T08:39:29.591Z,6.00
2018-05-16T08:42:00.375Z,5.97
2018-05-16T08:44:31.196Z,6.27
2018-05-16T08:47:01.995Z,6.43
2018-05-16T08:49:32.794Z,5.97
2018-05-16T08:52:03.630Z,6.10
2018-05-16T08:54:34.443Z,6.40
2018-05-16T08:57:05.232Z,6.30
2018-05-16T08:59:36.040Z,5.70
2018-05-16T09:02:06.879Z,7.57
2018-05-16T09:04:37.672Z,7.73
2018-05-16T09:07:08.434Z,8.13
2018-05-16T09:09:39.223Z,9.33
2018-05-16T09:12:10.011Z,9.80
2018-05-16T09:14:40.832Z,11.80
2018-05-16T09:17:11.612Z,11.20
2018-05-16T09:19:42.405Z,11.00
2018-05-16T09:22:13.168Z,11.63
2018-05-16T09:24:43.961Z,12.00
2018-05-16T09:27:14.770Z,11.50
2018-05-16T09:29:45.582Z,10.77
2018-05-16T09:32:16.374Z,9.97
2018-05-16T09:34:47.167Z,9.93
2018-05-16T09:37:17.948Z,10.40
2018-05-16T09:39:48.774Z,9.23
2018-05-16T09:42:19.560Z,10.20
2018-05-16T09:44:50.393Z,9.30
2018-05-16T09:47:21.235Z,9.60
2018-05-16T09:49:52.048Z,11.30
2018-05-16T09:52:22.880Z,11.43
2018-05-16T09:54:53.727Z,11.30
2018-05-16T09:57:24.528Z,10.87
2018-05-16T09:59:55.343Z,11.50
2018-05-16T10:02:26.132Z,10.83
2018-05-16T10:04:57.142Z,11.37
2018-05-16T10:07:27.911Z,12.03
2018-05-16T10:09:58.743Z,11.67
2018-05-16T10:12:29.535Z,11.03
2018-05-16T10:15:00.338Z,11.70
2018-05-16T10:17:31.127Z,13.43
2018-05-16T10:20:01.975Z,11.33
2018-05-16T10:22:32.770Z,12.47
2018-05-16T10:25:03.602Z,13.07
2018-05-16T10:27:34.397Z,13.77
2018-05-16T10:30:05.208Z,13.07
2018-05-16T10:32:35.993Z,11.60
2018-05-16T10:35:13.724Z,12.20
2018-05-16T10:37:44.589Z,11.20
2018-05-16T10:40:15.417Z,11.03
2018-05-16T10:42:46.227Z,10.40
2018-05-16T10:45:17.059Z,9.90
2018-05-16T10:47:47.878Z,10.23
2018-05-16T10:50:18.690Z,9.97
2018-05-16T10:52:49.465Z,9.90
2018-05-16T10:55:20.280Z,11.23
2018-05-16T10:57:51.127Z,10.60
2018-05-16T11:00:21.947Z,11.30
2018-05-16T11:02:52.750Z,12.87
2018-05-16T11:05:23.563Z,10.87
2018-05-16T11:07:54.362Z,12.50
2018-05-16T11:10:25.180Z,12.23
2018-05-16T11:12:55.927Z,12.23
2018-05-16T11:15:26.719Z,12.90
2018-05-16T11:17:58.503Z,13.77
2018-05-16T11:20:29.335Z,13.60
2018-05-16T11:23:00.117Z,15.27
2018-05-16T11:25:30.982Z,12.93
2018-05-16T11:28:01.836Z,12.40
2018-05-16T11:30:32.615Z,12.80
2018-05-16T11:33:03.422Z,11.97
2018-05-16T11:35:34.283Z,12.03
2018-05-16T11:38:05.077Z,11.63
2018-05-16T11:40:35.919Z,12.37
2018-05-16T11:43:06.783Z,11.53
2018-05-16T11:45:37.527Z,11.90
2018-05-16T11:48:08.329Z,11.57
2018-05-16T11:50:39.154Z,10.10
2018-05-16T11:53:10.088Z,11.30
2018-05-16T11:55:40.926Z,10.97
2018-05-16T11:58:11.796Z,10.80
2018-05-16T12:00:42.636Z,11.60
2018-05-16T12:03:13.400Z,10.30
2018-05-16T12:05:44.225Z,10.27
2018-05-16T12:08:15.099Z,10.77
2018-05-16T12:10:46.131Z,12.40
2018-05-16T12:13:16.913Z,13.73
2018-05-16T12:15:47.971Z,12.00
2018-05-16T12:18:18.811Z,11.90
2018-05-16T12:20:49.700Z,13.13
2018-05-16T12:23:20.471Z,13.33
2018-05-16T12:25:51.283Z,13.90
2018-05-16T12:28:22.188Z,14.13
2018-05-16T12:30:52.991Z,13.47
2018-05-16T12:33:23.956Z,12.60
2018-05-16T12:35:55.276Z,13.83
2018-05-16T12:38:26.506Z,13.50
2018-05-16T12:40:57.385Z,13.60
2018-05-16T12:43:29.046Z,12.73
2018-05-16T12:45:59.843Z,11.50
2018-05-16T12:48:30.699Z,12.43
2018-05-16T12:51:01.556Z,14.00
2018-05-16T12:53:32.320Z,13.80
2018-05-16T12:56:03.121Z,15.47
2018-05-16T12:58:34.088Z,17.30
2018-05-16T13:01:04.919Z,17.00
2018-05-16T13:03:35.736Z,17.20
2018-05-16T13:06:06.622Z,16.97
2018-05-16T13:08:37.464Z,14.37
2018-05-16T13:11:08.256Z,15.63
2018-05-16T13:13:39.143Z,14.90
2018-05-16T13:16:09.948Z,14.93
2018-05-16T13:18:40.897Z,15.43
2018-05-16T13:21:12.093Z,14.27
2018-05-16T13:23:42.912Z,14.50
2018-05-16T13:26:13.687Z,9.90
2018-05-16T13:28:44.471Z,9.10
2018-05-16T13:31:15.323Z,8.03
2018-05-16T13:33:46.107Z,7.40
2018-05-16T13:36:17.031Z,7.53
2018-05-16T13:38:47.807Z,8.23
2018-05-16T13:41:18.592Z,8.20
2018-05-16T13:43:50.484Z,7.90
2018-05-16T13:46:21.309Z,7.83
2018-05-16T13:48:52.857Z,8.30
2018-05-16T13:51:23.620Z,8.00
2018-05-16T13:53:54.404Z,9.03
2018-05-16T13:56:25.177Z,10.97
2018-05-16T13:58:55.943Z,9.63
2018-05-16T14:01:26.858Z,10.70
2018-05-16T14:03:57.643Z,10.47
2018-05-16T14:06:29.596Z,10.93
2018-05-16T14:09:00.323Z,11.80
2018-05-16T14:11:31.185Z,12.50
2018-05-16T14:14:01.995Z,12.47
2018-05-16T14:16:32.788Z,10.03
2018-05-16T14:19:03.555Z,10.37
2018-05-16T14:21:34.335Z,10.10
2018-05-16T14:24:05.142Z,8.43
2018-05-16T14:26:37.340Z,9.67
2018-05-16T14:29:08.398Z,9.97
2018-05-16T14:31:39.309Z,10.73
2018-05-16T14:34:10.072Z,10.67
2018-05-16T14:36:41.009Z,8.83
2018-05-16T14:39:12.892Z,8.50
2018-05-16T14:41:43.763Z,8.77
2018-05-16T14:44:15.092Z,8.97
2018-05-16T14:46:46.254Z,8.70
2018-05-16T14:49:17.098Z,9.27
2018-05-16T14:51:48.044Z,8.57
2018-05-16T14:54:18.955Z,7.70
2018-05-16T14:56:49.779Z,7.20
2018-05-16T14:59:20.618Z,7.73
2018-05-16T15:01:51.547Z,6.67
2018-05-16T15:04:22.432Z,7.30
2018-05-16T15:06:53.242Z,7.00
2018-05-16T15:09:27.777Z,6.20
2018-05-16T15:11:58.597Z,7.27
2018-05-16T15:14:29.429Z,6.50
2018-05-16T15:17:00.281Z,7.13
2018-05-16T15:19:31.059Z,6.80
2018-05-16T15:22:01.844Z,7.00
2018-05-16T15:24:32.659Z,7.23
2018-05-16T15:27:03.516Z,7.50
2018-05-16T15:29:34.367Z,6.87
2018-05-16T15:32:05.187Z,7.33
2018-05-16T15:34:36.039Z,8.60
2018-05-16T15:37:06.834Z,8.10
2018-05-16T15:39:37.617Z,8.13
2018-05-16T15:42:08.424Z,8.60
2018-05-16T15:44:39.210Z,8.77
2018-05-16T15:47:10.048Z,9.40
2018-05-16T15:49:40.875Z,9.13
2018-05-16T15:52:11.681Z,10.27
2018-05-16T15:54:42.452Z,9.73
2018-05-16T15:57:13.308Z,9.40
2018-05-16T15:59:44.252Z,11.10
2018-05-16T16:02:15.033Z,11.37
2018-05-16T16:04:45.836Z,11.97
2018-05-16T16:07:16.703Z,11.03
2018-05-16T16:09:47.508Z,12.50
2018-05-16T16:12:18.334Z,12.43
2018-05-16T16:14:49.139Z,12.77
2018-05-16T16:17:19.954Z,11.57
2018-05-16T16:19:50.832Z,10.77
2018-05-16T16:22:21.659Z,11.67
2018-05-16T16:24:52.470Z,13.10
2018-05-16T16:27:23.311Z,12.27
2018-05-16T16:29:54.172Z,12.17
2018-05-16T16:32:25.378Z,11.93
2018-05-16T16:34:56.153Z,13.63
2018-05-16T16:37:27.038Z,15.37
2018-05-16T16:39:57.838Z,13.77
2018-05-16T16:42:28.626Z,13.10
2018-05-16T16:44:59.414Z,15.30
2018-05-16T16:47:30.232Z,13.97
2018-05-16T16:50:01.125Z,14.27
2018-05-16T16:52:31.940Z,13.10
2018-05-16T16:55:02.787Z,13.50
2018-05-16T16:57:33.587Z,15.53
2018-05-16T17:00:04.399Z,11.60
2018-05-16T17:02:35.200Z,11.90
2018-05-16T17:05:05.973Z,13.20
2018-05-16T17:07:36.752Z,11.67
2018-05-16T17:10:07.531Z,11.30
2018-05-16T17:12:38.317Z,11.00
2018-05-16T17:15:09.092Z,12.60
2018-05-16T17:17:39.889Z,11.80
2018-05-16T17:20:10.705Z,10.10
2018-05-16T17:22:41.509Z,13.40
2018-05-16T17:25:12.267Z,12.70
2018-05-16T17:27:43.152Z,11.67
2018-05-16T17:30:14.047Z,12.03
2018-05-16T17:32:44.872Z,12.70
2018-05-16T17:35:15.664Z,14.20
2018-05-16T17:37:46.463Z,13.50
2018-05-16T17:40:17.236Z,13.10
2018-05-16T17:42:48.140Z,13.83
2018-05-16T17:45:19.069Z,13.20
2018-05-16T17:47:49.968Z,12.17
2018-05-16T17:50:20.846Z,11.60
2018-05-16T17:52:51.737Z,12.27
2018-05-16T17:55:22.559Z,11.03
2018-05-16T17:57:53.336Z,12.20
2018-05-16T18:00:24.094Z,11.40
2018-05-16T18:02:54.883Z,11.80
2018-05-16T18:05:25.670Z,11.70
2018-05-16T18:07:56.479Z,10.63
2018-05-16T18:10:27.255Z,11.30
2018-05-16T18:16:27.283Z,11.30
2018-05-16T18:18:58.082Z,11.63
2018-05-16T18:21:28.930Z,12.17
2018-05-16T18:23:59.816Z,12.00
2018-05-16T18:26:30.780Z,10.80
2018-05-16T18:29:01.591Z,11.57
2018-05-16T18:31:33.468Z,11.67
2018-05-16T18:34:04.660Z,10.60
2018-05-16T18:36:35.453Z,10.70
2018-05-16T18:39:06.339Z,10.80
2018-05-16T18:41:37.140Z,11.67
2018-05-16T18:44:07.980Z,10.70
2018-05-16T18:46:38.804Z,10.70
2018-05-16T18:49:09.692Z,11.20
2018-05-16T18:51:40.468Z,9.43
2018-05-16T18:54:11.314Z,9.57
2018-05-16T18:56:42.184Z,9.30
2018-05-16T18:59:13.073Z,9.70
2018-05-16T19:01:44.006Z,11.10
2018-05-16T19:04:14.844Z,10.00
2018-05-16T19:06:45.641Z,6.00
2018-05-16T19:09:16.523Z,4.10
2018-05-16T19:11:47.591Z,4.73
2018-05-16T19:14:18.587Z,3.45
2018-05-16T19:16:49.490Z,3.27
2018-05-16T19:19:26.212Z,3.97
2018-05-16T19:21:57.038Z,4.12
2018-05-16T19:24:27.913Z,3.23
2018-05-16T19:26:58.736Z,3.47
2018-05-16T19:29:29.566Z,3.23
2018-05-16T19:32:00.413Z,3.50
2018-05-16T19:34:31.351Z,4.67
2018-05-16T19:37:02.175Z,4.93
2018-05-16T19:39:34.056Z,5.27
2018-05-16T19:42:04.996Z,4.32
2018-05-16T19:44:35.813Z,4.17
2018-05-16T19:47:07.516Z,4.87
2018-05-16T19:49:38.498Z,5.12
2018-05-16T19:52:09.340Z,4.55
2018-05-16T19:54:40.420Z,5.20
2018-05-16T19:57:11.377Z,4.97
2018-05-16T19:59:42.252Z,5.18
2018-05-16T20:02:13.057Z,6.07
2018-05-16T20:04:44.070Z,5.27
2018-05-16T20:07:14.860Z,5.45
2018-05-16T20:09:45.664Z,6.07
2018-05-16T20:12:16.528Z,5.33
2018-05-16T20:14:47.441Z,5.73
2018-05-16T20:17:18.154Z,6.20
2018-05-16T20:19:48.968Z,7.27
2018-05-16T20:22:19.782Z,5.97
2018-05-16T20:24:53.591Z,6.90
2018-05-16T20:27:24.416Z,5.93
2018-05-16T20:29:55.291Z,5.60
2018-05-16T20:32:26.087Z,6.27
2018-05-16T20:34:56.957Z,6.03
2018-05-16T20:37:27.781Z,5.90
2018-05-16T20:39:58.707Z,6.87
2018-05-16T20:42:29.437Z,7.47
2018-05-16T20:45:00.263Z,6.47
2018-05-16T20:47:31.059Z,6.37
2018-05-16T20:50:01.965Z,7.77
2018-05-16T20:52:32.767Z,8.03
2018-05-16T20:55:03.638Z,8.53
2018-05-16T20:57:34.440Z,9.13
2018-05-16T21:00:05.242Z,7.77
2018-05-16T21:02:36.034Z,8.73
2018-05-16T21:05:06.898Z,8.43
2018-05-16T21:07:37.783Z,8.20
2018-05-16T21:10:08.565Z,9.00
2018-05-16T21:12:39.343Z,9.60
2018-05-16T21:15:10.235Z,9.17
2018-05-16T21:17:41.101Z,10.90
2018-05-16T21:20:11.895Z,10.43
2018-05-16T21:22:42.681Z,10.80
2018-05-16T21:25:13.556Z,13.07
2018-05-16T21:27:44.340Z,11.33
2018-05-16T21:30:15.174Z,12.03
2018-05-16T21:32:45.971Z,13.07
2018-05-16T21:35:16.763Z,11.37
2018-05-16T21:37:47.563Z,12.03
2018-05-16T21:40:18.472Z,13.17
2018-05-16T21:42:49.325Z,12.73
2018-05-16T21:45:20.100Z,13.23
2018-05-16T21:47:50.871Z,10.23
2018-05-16T21:50:21.683Z,11.80
2018-05-16T21:52:52.530Z,11.50
2018-05-16T21:55:23.311Z,11.50
2018-05-16T21:57:54.103Z,13.03
2018-05-16T22:00:24.887Z,11.90
2018-05-16T22:02:55.645Z,11.97
2018-05-16T22:05:26.451Z,12.50
2018-05-16T22:07:57.219Z,11.93
2018-05-16T22:10:28.048Z,11.73
2018-05-16T22:12:58.887Z,11.47
2018-05-16T22:15:29.678Z,11.10
2018-05-16T22:18:00.447Z,13.27
2018-05-16T22:20:31.250Z,11.53
2018-05-16T22:23:02.024Z,12.87
2018-05-16T22:25:32.858Z,12.00
2018-05-16T22:28:03.656Z,10.93
2018-05-16T22:30:40.433Z,12.20
2018-05-16T22:33:17.235Z,12.00
2018-05-16T22:35:54.054Z,11.90
2018-05-16T22:38:30.873Z,11.95
2018-05-16T22:41:07.967Z,12.82
2018-05-16T22:57:00.319Z,14.00
2018-05-16T22:59:31.160Z,14.60
2018-05-16T23:02:01.935Z,14.47
2018-05-16T23:04:32.697Z,15.33
2018-05-16T23:07:03.503Z,14.97
2018-05-16T23:09:34.264Z,14.20
2018-05-16T23:12:05.072Z,14.50
2018-05-16T23:14:35.874Z,15.30
2018-05-16T23:17:06.765Z,15.47
2018-05-16T23:19:37.507Z,15.47
2018-05-16T23:22:08.331Z,15.93
2018-05-16T23:24:39.142Z,13.70
2018-05-16T23:27:09.926Z,15.20
2018-05-16T23:29:47.663Z,16.23
2018-05-16T23:32:18.472Z,15.80
2018-05-16T23:34:49.284Z,15.77
2018-05-16T23:37:20.101Z,14.90
2018-05-16T23:39:50.860Z,14.93
2018-05-16T23:42:21.633Z,14.83
2018-05-16T23:44:52.396Z,16.03
2018-05-16T23:47:23.183Z,16.40
2018-05-16T23:49:54.068Z,15.83
2018-05-16T23:52:24.882Z,15.77
2018-05-16T23:54:55.690Z,16.00
2018-05-16T23:57:26.484Z,16.40
2018-05-16T23:59:57.277Z,17.77
